sensor_id;sensor_type;location;lat;lon;timestamp;pressure;altitude;pressure_sealevel;temperature;humidity
75855;BME280;64502;59.976;30.316;2023-01-05T00:00:11;101088.56;;;-6.97;75.97
75855;BME280;64502;59.976;30.316;2023-01-05T00:02:36;101088.59;;;-6.96;76.17
75855;BME280;64502;59.976;30.316;2023-01-05T00:05:02;101088.66;;;-6.93;76.06
75855;BME280;64502;59.976;30.316;2023-01-05T00:07:27;101084.44;;;-6.89;75.88
75855;BME280;64502;59.976;30.316;2023-01-05T00:09:52;101084.47;;;-6.87;75.69
75855;BME280;64502;59.976;30.316;2023-01-05T00:12:18;101080.25;;;-6.84;75.98
75855;BME280;64502;59.976;30.316;2023-01-05T00:15:02;101070.94;;;-6.77;76.10
75855;BME280;64502;59.976;30.316;2023-01-05T00:17:46;101079.66;;;-6.71;76.25
75855;BME280;64502;59.976;30.316;2023-01-05T00:20:30;101078.78;;;-6.70;75.93
75855;BME280;64502;59.976;30.316;2023-01-05T00:23:14;101083.84;;;-6.74;76.01
75855;BME280;64502;59.976;30.316;2023-01-05T00:25:40;101085.47;;;-6.79;75.42
75855;BME280;64502;59.976;30.316;2023-01-05T00:28:06;101080.25;;;-6.84;75.59
75855;BME280;64502;59.976;30.316;2023-01-05T00:30:36;101075.06;;;-6.87;75.54
75855;BME280;64502;59.976;30.316;2023-01-05T00:33:02;101076.69;;;-6.90;75.83
75855;BME280;64502;59.976;30.316;2023-01-05T00:35:28;101080.94;;;-6.93;76.15
75855;BME280;64502;59.976;30.316;2023-01-05T00:37:54;101075.78;;;-6.96;76.01
75855;BME280;64502;59.976;30.316;2023-01-05T00:40:20;101078.28;;;-6.97;76.27
75855;BME280;64502;59.976;30.316;2023-01-05T00:42:47;101069.69;;;-7.01;76.14
75855;BME280;64502;59.976;30.316;2023-01-05T00:45:14;101076.50;;;-7.01;76.47
75855;BME280;64502;59.976;30.316;2023-01-05T00:47:41;101065.41;;;-7.00;76.63
75855;BME280;64502;59.976;30.316;2023-01-05T00:50:08;101067.22;;;-6.95;76.44
75855;BME280;64502;59.976;30.316;2023-01-05T00:52:34;101058.81;;;-6.87;76.54
75855;BME280;64502;59.976;30.316;2023-01-05T00:54:59;101065.78;;;-6.80;76.48
75855;BME280;64502;59.976;30.316;2023-01-05T00:57:25;101065.13;;;-6.68;76.51
75855;BME280;64502;59.976;30.316;2023-01-05T00:59:50;101067.94;;;-6.55;76.66
75855;BME280;64502;59.976;30.316;2023-01-05T01:02:16;101064.72;;;-6.43;76.36
75855;BME280;64502;59.976;30.316;2023-01-05T01:04:41;101058.09;;;-6.30;76.18
75855;BME280;64502;59.976;30.316;2023-01-05T01:07:07;101056.50;;;-6.22;75.65
75855;BME280;64502;59.976;30.316;2023-01-05T01:09:32;101056.59;;;-6.16;75.45
75855;BME280;64502;59.976;30.316;2023-01-05T01:11:58;101041.19;;;-6.16;74.91
75855;BME280;64502;59.976;30.316;2023-01-05T01:14:24;101048.00;;;-6.18;74.73
75855;BME280;64502;59.976;30.316;2023-01-05T01:16:49;101046.22;;;-6.22;74.74
75855;BME280;64502;59.976;30.316;2023-01-05T01:19:20;101047.81;;;-6.29;74.96
75855;BME280;64502;59.976;30.316;2023-01-05T01:21:46;101053.72;;;-6.34;75.33
75855;BME280;64502;59.976;30.316;2023-01-05T01:24:15;101054.53;;;-6.38;75.67
75855;BME280;64502;59.976;30.316;2023-01-05T01:26:41;101061.25;;;-6.45;75.25
75855;BME280;64502;59.976;30.316;2023-01-05T01:29:06;101060.31;;;-6.50;75.69
75855;BME280;64502;59.976;30.316;2023-01-05T01:31:32;101054.22;;;-6.55;75.84
75855;BME280;64502;59.976;30.316;2023-01-05T01:33:59;101052.47;;;-6.59;75.40
75855;BME280;64502;59.976;30.316;2023-01-05T01:36:25;101052.41;;;-6.62;75.75
75855;BME280;64502;59.976;30.316;2023-01-05T01:38:51;101054.94;;;-6.65;75.32
75855;BME280;64502;59.976;30.316;2023-01-05T01:41:16;101051.44;;;-6.69;75.77
75855;BME280;64502;59.976;30.316;2023-01-05T01:43:47;101056.50;;;-6.72;75.20
75855;BME280;64502;59.976;30.316;2023-01-05T01:46:15;101050.41;;;-6.79;75.34
75855;BME280;64502;59.976;30.316;2023-01-05T01:48:47;101054.59;;;-6.82;75.43
75855;BME280;64502;59.976;30.316;2023-01-05T01:51:35;101051.94;;;-6.88;75.42
75855;BME280;64502;59.976;30.316;2023-01-05T01:54:04;101054.34;;;-6.96;75.55
75855;BME280;64502;59.976;30.316;2023-01-05T01:56:52;101057.72;;;-7.00;75.48
75855;BME280;64502;59.976;30.316;2023-01-05T01:59:18;101059.31;;;-7.05;75.48
75855;BME280;64502;59.976;30.316;2023-01-05T02:01:44;101055.84;;;-7.09;76.36
75855;BME280;64502;59.976;30.316;2023-01-05T02:04:10;101054.16;;;-7.08;76.21
75855;BME280;64502;59.976;30.316;2023-01-05T02:06:36;101054.31;;;-6.99;76.09
75855;BME280;64502;59.976;30.316;2023-01-05T02:09:02;101046.72;;;-6.95;76.24
75855;BME280;64502;59.976;30.316;2023-01-05T02:31:18;101044.53;;;-7.20;75.85
75855;BME280;64502;59.976;30.316;2023-01-05T02:33:58;101041.88;;;-7.25;76.14
75855;BME280;64502;59.976;30.316;2023-01-05T02:41:42;101035.75;;;-7.31;76.25
75855;BME280;64502;59.976;30.316;2023-01-05T02:44:09;101034.88;;;-7.33;76.00
75855;BME280;64502;59.976;30.316;2023-01-05T02:46:35;101039.94;;;-7.37;75.93
75855;BME280;64502;59.976;30.316;2023-01-05T02:49:01;101042.44;;;-7.38;76.61
75855;BME280;64502;59.976;30.316;2023-01-05T02:51:32;101045.03;;;-7.38;76.17
75855;BME280;64502;59.976;30.316;2023-01-05T02:56:39;101046.69;;;-7.40;75.90
75855;BME280;64502;59.976;30.316;2023-01-05T02:59:11;101049.25;;;-7.40;75.98
75855;BME280;64502;59.976;30.316;2023-01-05T03:01:45;101048.38;;;-7.41;75.99
75855;BME280;64502;59.976;30.316;2023-01-05T03:04:25;101049.28;;;-7.39;76.05
75855;BME280;64502;59.976;30.316;2023-01-05T03:06:58;101050.09;;;-7.40;75.59
75855;BME280;64502;59.976;30.316;2023-01-05T03:09:28;101041.56;;;-7.40;75.95
75855;BME280;64502;59.976;30.316;2023-01-05T03:12:23;101046.72;;;-7.39;76.09
75855;BME280;64502;59.976;30.316;2023-01-05T03:15:26;101038.97;;;-7.42;75.67
75855;BME280;64502;59.976;30.316;2023-01-05T03:18:16;101050.94;;;-7.41;76.05
75855;BME280;64502;59.976;30.316;2023-01-05T03:20:47;101050.03;;;-7.43;75.72
75855;BME280;64502;59.976;30.316;2023-01-05T03:23:15;101056.88;;;-7.43;75.50
75855;BME280;64502;59.976;30.316;2023-01-05T03:26:02;101054.28;;;-7.45;75.58
75855;BME280;64502;59.976;30.316;2023-01-05T03:28:56;101049.34;;;-7.35;75.38
75855;BME280;64502;59.976;30.316;2023-01-05T03:31:51;101049.56;;;-7.25;75.71
75855;BME280;64502;59.976;30.316;2023-01-05T03:35:01;101058.44;;;-7.07;75.67
75855;BME280;64502;59.976;30.316;2023-01-05T03:37:54;101051.09;;;-6.89;75.97
75855;BME280;64502;59.976;30.316;2023-01-05T03:40:26;101036.78;;;-6.76;75.27
75855;BME280;64502;59.976;30.316;2023-01-05T03:42:54;101038.69;;;-6.64;75.65
75855;BME280;64502;59.976;30.316;2023-01-05T03:45:20;101040.56;;;-6.54;75.71
75855;BME280;64502;59.976;30.316;2023-01-05T03:47:46;101044.19;;;-6.41;75.61
75855;BME280;64502;59.976;30.316;2023-01-05T03:50:12;101035.78;;;-6.33;74.75
75855;BME280;64502;59.976;30.316;2023-01-05T03:52:37;101038.44;;;-6.27;75.16
75855;BME280;64502;59.976;30.316;2023-01-05T03:55:03;101043.53;;;-6.30;74.30
75855;BME280;64502;59.976;30.316;2023-01-05T03:57:29;101034.91;;;-6.35;75.15
75855;BME280;64502;59.976;30.316;2023-01-05T03:59:54;101040.00;;;-6.36;74.71
75855;BME280;64502;59.976;30.316;2023-01-05T04:02:20;101037.44;;;-6.36;74.35
75855;BME280;64502;59.976;30.316;2023-01-05T04:04:45;101051.97;;;-6.37;74.29
75855;BME280;64502;59.976;30.316;2023-01-05T04:07:10;101039.94;;;-6.41;74.54
75855;BME280;64502;59.976;30.316;2023-01-05T04:09:36;101042.44;;;-6.45;74.52
75855;BME280;64502;59.976;30.316;2023-01-05T04:12:01;101050.03;;;-6.52;74.26
75855;BME280;64502;59.976;30.316;2023-01-05T04:14:27;101047.34;;;-6.58;74.37
75855;BME280;64502;59.976;30.316;2023-01-05T04:16:52;101038.66;;;-6.66;73.98
75855;BME280;64502;59.976;30.316;2023-01-05T04:19:18;101035.09;;;-6.74;74.28
75855;BME280;64502;59.976;30.316;2023-01-05T04:21:43;101030.72;;;-6.80;74.47
75855;BME280;64502;59.976;30.316;2023-01-05T04:24:09;101036.66;;;-6.84;73.73
75855;BME280;64502;59.976;30.316;2023-01-05T04:26:35;101030.53;;;-6.90;73.59
75855;BME280;64502;59.976;30.316;2023-01-05T04:29:03;101037.28;;;-6.96;73.21
75855;BME280;64502;59.976;30.316;2023-01-05T04:31:28;101034.63;;;-7.00;73.14
75855;BME280;64502;59.976;30.316;2023-01-05T04:33:54;101029.41;;;-7.06;72.58
75855;BME280;64502;59.976;30.316;2023-01-05T04:36:19;101025.03;;;-7.10;73.38
75855;BME280;64502;59.976;30.316;2023-01-05T04:38:45;101018.94;;;-7.16;72.60
75855;BME280;64502;59.976;30.316;2023-01-05T04:41:10;101023.13;;;-7.21;72.59
75855;BME280;64502;59.976;30.316;2023-01-05T04:43:36;101018.81;;;-7.23;72.04
75855;BME280;64502;59.976;30.316;2023-01-05T04:46:01;101020.41;;;-7.30;72.18
75855;BME280;64502;59.976;30.316;2023-01-05T04:48:27;101022.88;;;-7.34;71.08
75855;BME280;64502;59.976;30.316;2023-01-05T04:50:54;101015.09;;;-7.39;71.66
75855;BME280;64502;59.976;30.316;2023-01-05T04:53:20;101021.00;;;-7.43;71.92
75855;BME280;64502;59.976;30.316;2023-01-05T04:55:46;101024.34;;;-7.46;71.79
75855;BME280;64502;59.976;30.316;2023-01-05T04:58:12;101020.06;;;-7.47;72.11
75855;BME280;64502;59.976;30.316;2023-01-05T05:00:37;101028.56;;;-7.49;72.06
75855;BME280;64502;59.976;30.316;2023-01-05T05:03:03;101024.25;;;-7.50;72.93
75855;BME280;64502;59.976;30.316;2023-01-05T05:05:29;101019.91;;;-7.54;73.11
75855;BME280;64502;59.976;30.316;2023-01-05T05:07:54;101013.88;;;-7.58;72.67
75855;BME280;64502;59.976;30.316;2023-01-05T05:10:19;101010.38;;;-7.62;72.39
75855;BME280;64502;59.976;30.316;2023-01-05T05:12:45;101020.59;;;-7.63;72.61
75855;BME280;64502;59.976;30.316;2023-01-05T05:15:11;101009.41;;;-7.67;72.98
75855;BME280;64502;59.976;30.316;2023-01-05T05:17:36;101011.97;;;-7.67;73.34
75855;BME280;64502;59.976;30.316;2023-01-05T05:20:02;101005.13;;;-7.68;73.21
75855;BME280;64502;59.976;30.316;2023-01-05T05:22:28;101012.78;;;-7.69;73.09
75855;BME280;64502;59.976;30.316;2023-01-05T05:24:53;101018.78;;;-7.69;73.58
75855;BME280;64502;59.976;30.316;2023-01-05T05:27:18;101016.22;;;-7.69;73.47
75855;BME280;64502;59.976;30.316;2023-01-05T05:29:44;101026.47;;;-7.67;73.94
75855;BME280;64502;59.976;30.316;2023-01-05T05:32:09;101018.78;;;-7.67;74.29
75855;BME280;64502;59.976;30.316;2023-01-05T05:34:35;101022.22;;;-7.67;74.66
75855;BME280;64502;59.976;30.316;2023-01-05T05:37:00;101019.75;;;-7.62;74.62
75855;BME280;64502;59.976;30.316;2023-01-05T05:39:26;101026.69;;;-7.58;74.66
75855;BME280;64502;59.976;30.316;2023-01-05T05:41:51;101021.63;;;-7.53;74.52
75855;BME280;64502;59.976;30.316;2023-01-05T05:44:17;101027.72;;;-7.48;74.86
75855;BME280;64502;59.976;30.316;2023-01-05T05:46:42;101025.25;;;-7.44;75.05
75855;BME280;64502;59.976;30.316;2023-01-05T05:49:08;101027.03;;;-7.40;74.79
75855;BME280;64502;59.976;30.316;2023-01-05T05:51:33;101032.31;;;-7.33;75.07
75855;BME280;64502;59.976;30.316;2023-01-05T05:53:59;101029.81;;;-7.29;75.16
75855;BME280;64502;59.976;30.316;2023-01-05T05:56:24;101026.50;;;-7.23;75.46
75855;BME280;64502;59.976;30.316;2023-01-05T05:58:50;101028.34;;;-7.16;75.50
75855;BME280;64502;59.976;30.316;2023-01-05T06:01:16;101017.25;;;-7.15;75.31
75855;BME280;64502;59.976;30.316;2023-01-05T06:03:41;101030.13;;;-7.13;75.60
75855;BME280;64502;59.976;30.316;2023-01-05T06:06:07;101027.66;;;-7.07;75.55
75855;BME280;64502;59.976;30.316;2023-01-05T06:08:32;101027.75;;;-7.01;75.85
75855;BME280;64502;59.976;30.316;2023-01-05T06:10:58;101029.59;;;-6.94;76.02
75855;BME280;64502;59.976;30.316;2023-01-05T06:13:24;101030.59;;;-6.87;75.43
75855;BME280;64502;59.976;30.316;2023-01-05T06:15:49;101038.41;;;-6.81;74.61
75855;BME280;64502;59.976;30.316;2023-01-05T06:18:15;101034.97;;;-6.80;74.52
75855;BME280;64502;59.976;30.316;2023-01-05T06:20:41;101036.84;;;-6.73;75.35
75855;BME280;64502;59.976;30.316;2023-01-05T06:23:07;101033.50;;;-6.67;75.14
75855;BME280;64502;59.976;30.316;2023-01-05T06:25:33;101036.09;;;-6.66;74.60
75855;BME280;64502;59.976;30.316;2023-01-05T06:27:59;101032.75;;;-6.62;74.83
75855;BME280;64502;59.976;30.316;2023-01-05T06:30:25;101033.66;;;-6.58;74.12
75855;BME280;64502;59.976;30.316;2023-01-05T06:32:51;101036.22;;;-6.58;74.58
75855;BME280;64502;59.976;30.316;2023-01-05T06:35:16;101032.03;;;-6.55;74.95
75855;BME280;64502;59.976;30.316;2023-01-05T06:37:42;101031.25;;;-6.48;74.46
75855;BME280;64502;59.976;30.316;2023-01-05T06:40:08;101038.19;;;-6.43;74.65
75855;BME280;64502;59.976;30.316;2023-01-05T06:42:36;101036.53;;;-6.40;74.60
75855;BME280;64502;59.976;30.316;2023-01-05T06:45:02;101033.09;;;-6.40;74.24
75855;BME280;64502;59.976;30.316;2023-01-05T06:47:27;101035.66;;;-6.39;73.99
75855;BME280;64502;59.976;30.316;2023-01-05T06:49:52;101035.66;;;-6.39;74.52
75855;BME280;64502;59.976;30.316;2023-01-05T06:52:18;101038.28;;;-6.36;74.51
75855;BME280;64502;59.976;30.316;2023-01-05T06:54:43;101034.91;;;-6.33;74.06
75855;BME280;64502;59.976;30.316;2023-01-05T06:57:09;101041.69;;;-6.38;73.60
75855;BME280;64502;59.976;30.316;2023-01-05T06:59:35;101040.81;;;-6.39;74.17
75855;BME280;64502;59.976;30.316;2023-01-05T07:02:01;101038.28;;;-6.37;74.25
75855;BME280;64502;59.976;30.316;2023-01-05T07:04:26;101040.00;;;-6.36;73.79
75855;BME280;64502;59.976;30.316;2023-01-05T07:06:52;101044.31;;;-6.35;74.07
75855;BME280;64502;59.976;30.316;2023-01-05T07:09:17;101054.59;;;-6.34;74.20
75855;BME280;64502;59.976;30.316;2023-01-05T07:11:43;101047.78;;;-6.32;74.22
75855;BME280;64502;59.976;30.316;2023-01-05T07:14:09;101054.63;;;-6.32;73.73
75855;BME280;64502;59.976;30.316;2023-01-05T07:16:34;101060.66;;;-6.30;73.45
75855;BME280;64502;59.976;30.316;2023-01-05T07:18:59;101054.66;;;-6.29;73.74
75855;BME280;64502;59.976;30.316;2023-01-05T07:21:25;101062.38;;;-6.29;73.71
75855;BME280;64502;59.976;30.316;2023-01-05T07:23:50;101058.94;;;-6.30;73.73
75855;BME280;64502;59.976;30.316;2023-01-05T07:26:16;101072.66;;;-6.28;73.67
75855;BME280;64502;59.976;30.316;2023-01-05T07:28:41;101059.00;;;-6.25;73.55
75855;BME280;64502;59.976;30.316;2023-01-05T07:31:07;101071.91;;;-6.22;73.46
75855;BME280;64502;59.976;30.316;2023-01-05T07:33:32;101061.59;;;-6.23;73.01
75855;BME280;64502;59.976;30.316;2023-01-05T07:36:02;101079.50;;;-6.28;72.43
75855;BME280;64502;59.976;30.316;2023-01-05T07:38:28;101078.69;;;-6.27;73.30
75855;BME280;64502;59.976;30.316;2023-01-05T07:40:57;101083.81;;;-6.26;73.29
75855;BME280;64502;59.976;30.316;2023-01-05T07:43:23;101089.78;;;-6.28;72.99
75855;BME280;64502;59.976;30.316;2023-01-05T07:45:48;101092.31;;;-6.30;73.18
75855;BME280;64502;59.976;30.316;2023-01-05T07:48:13;101085.38;;;-6.35;72.43
75855;BME280;64502;59.976;30.316;2023-01-05T07:50:39;101093.91;;;-6.38;72.51
75855;BME280;64502;59.976;30.316;2023-01-05T07:53:04;101094.72;;;-6.39;72.60
75855;BME280;64502;59.976;30.316;2023-01-05T07:55:30;101096.47;;;-6.38;73.70
75855;BME280;64502;59.976;30.316;2023-01-05T07:57:55;101103.38;;;-6.34;73.07
75855;BME280;64502;59.976;30.316;2023-01-05T08:00:20;101103.47;;;-6.28;72.86
75855;BME280;64502;59.976;30.316;2023-01-05T08:02:46;101112.97;;;-6.23;72.90
75855;BME280;64502;59.976;30.316;2023-01-05T08:05:11;101098.53;;;-6.15;72.90
75855;BME280;64502;59.976;30.316;2023-01-05T08:07:37;101111.47;;;-6.11;72.34
75855;BME280;64502;59.976;30.316;2023-01-05T08:10:03;101110.53;;;-6.14;70.47
75855;BME280;64502;59.976;30.316;2023-01-05T08:12:47;101116.47;;;-6.18;71.72
75855;BME280;64502;59.976;30.316;2023-01-05T08:15:31;101109.53;;;-6.24;71.41
75855;BME280;64502;59.976;30.316;2023-01-05T08:17:57;101123.97;;;-6.31;71.36
75855;BME280;64502;59.976;30.316;2023-01-05T08:20:22;101126.47;;;-6.34;72.04
75855;BME280;64502;59.976;30.316;2023-01-05T08:22:51;101123.09;;;-6.31;71.43
75855;BME280;64502;59.976;30.316;2023-01-05T08:25:18;101122.34;;;-6.27;72.10
75855;BME280;64502;59.976;30.316;2023-01-05T08:27:44;101121.56;;;-6.21;71.38
75855;BME280;64502;59.976;30.316;2023-01-05T08:30:10;101113.94;;;-6.15;70.79
75855;BME280;64502;59.976;30.316;2023-01-05T08:32:36;101129.31;;;-6.18;68.21
75855;BME280;64502;59.976;30.316;2023-01-05T08:35:02;101136.94;;;-6.24;68.80
75855;BME280;64502;59.976;30.316;2023-01-05T08:37:27;101142.75;;;-6.33;69.47
75855;BME280;64502;59.976;30.316;2023-01-05T08:39:53;101147.91;;;-6.32;69.58
75855;BME280;64502;59.976;30.316;2023-01-05T08:42:18;101152.16;;;-6.34;69.01
75855;BME280;64502;59.976;30.316;2023-01-05T08:44:43;101152.94;;;-6.38;68.75
75855;BME280;64502;59.976;30.316;2023-01-05T08:47:09;101157.84;;;-6.50;67.74
75855;BME280;64502;59.976;30.316;2023-01-05T08:49:34;101150.81;;;-6.60;68.48
75855;BME280;64502;59.976;30.316;2023-01-05T08:52:00;101155.03;;;-6.64;68.90
75855;BME280;64502;59.976;30.316;2023-01-05T08:54:25;101155.94;;;-6.62;68.60
75855;BME280;64502;59.976;30.316;2023-01-05T08:56:51;101164.53;;;-6.60;69.52
75855;BME280;64502;59.976;30.316;2023-01-05T08:59:17;101160.25;;;-6.58;69.49
75855;BME280;64502;59.976;30.316;2023-01-05T09:01:42;101165.50;;;-6.53;69.87
75855;BME280;64502;59.976;30.316;2023-01-05T09:04:08;101171.63;;;-6.46;70.20
75855;BME280;64502;59.976;30.316;2023-01-05T09:06:34;101172.53;;;-6.41;69.50
75855;BME280;64502;59.976;30.316;2023-01-05T09:08:59;101172.69;;;-6.35;70.83
75855;BME280;64502;59.976;30.316;2023-01-05T09:11:25;101172.75;;;-6.31;70.21
75855;BME280;64502;59.976;30.316;2023-01-05T09:13:56;101179.63;;;-6.30;70.48
75855;BME280;64502;59.976;30.316;2023-01-05T09:16:28;101179.63;;;-6.30;70.24
75855;BME280;64502;59.976;30.316;2023-01-05T09:18:56;101177.06;;;-6.28;70.10
75855;BME280;64502;59.976;30.316;2023-01-05T09:21:21;101181.41;;;-6.26;70.13
75855;BME280;64502;59.976;30.316;2023-01-05T09:23:47;101183.19;;;-6.21;70.12
75855;BME280;64502;59.976;30.316;2023-01-05T09:26:13;101179.63;;;-6.28;69.87
75855;BME280;64502;59.976;30.316;2023-01-05T09:28:40;101181.44;;;-6.24;70.62
75855;BME280;64502;59.976;30.316;2023-01-05T09:33:36;101183.22;;;-6.20;69.23
75855;BME280;64502;59.976;30.316;2023-01-05T09:36:02;101194.25;;;-6.26;69.32
75855;BME280;64502;59.976;30.316;2023-01-05T09:38:27;101195.97;;;-6.24;70.19
75855;BME280;64502;59.976;30.316;2023-01-05T09:40:59;101202.81;;;-6.25;69.99
75855;BME280;64502;59.976;30.316;2023-01-05T09:43:28;101195.13;;;-6.23;69.18
75855;BME280;64502;59.976;30.316;2023-01-05T09:45:56;101207.13;;;-6.24;68.61
75855;BME280;64502;59.976;30.316;2023-01-05T09:48:23;101211.44;;;-6.21;69.19
75855;BME280;64502;59.976;30.316;2023-01-05T09:50:49;101212.31;;;-6.21;69.70
75855;BME280;64502;59.976;30.316;2023-01-05T09:53:18;101214.06;;;-6.17;69.68
75855;BME280;64502;59.976;30.316;2023-01-05T09:55:47;101206.41;;;-6.15;69.26
75855;BME280;64502;59.976;30.316;2023-01-05T09:58:16;101217.53;;;-6.16;68.40
75855;BME280;64502;59.976;30.316;2023-01-05T10:00:52;101222.59;;;-6.19;67.67
75855;BME280;64502;59.976;30.316;2023-01-05T10:03:24;101222.53;;;-6.22;66.88
75855;BME280;64502;59.976;30.316;2023-01-05T10:05:50;101228.44;;;-6.28;67.83
75855;BME280;64502;59.976;30.316;2023-01-05T10:08:29;101226.59;;;-6.34;67.98
75855;BME280;64502;59.976;30.316;2023-01-05T10:11:30;101225.53;;;-6.46;67.20
75855;BME280;64502;59.976;30.316;2023-01-05T10:14:22;101233.81;;;-6.60;67.49
75855;BME280;64502;59.976;30.316;2023-01-05T10:16:48;101241.78;;;-6.88;66.66
75855;BME280;64502;59.976;30.316;2023-01-05T10:19:16;101240.69;;;-7.00;68.01
75855;BME280;64502;59.976;30.316;2023-01-05T10:24:44;101244.81;;;-7.06;68.51
75855;BME280;64502;59.976;30.316;2023-01-05T10:27:24;101241.47;;;-7.02;69.22
75855;BME280;64502;59.976;30.316;2023-01-05T10:32:48;101238.13;;;-7.00;68.12
75855;BME280;64502;59.976;30.316;2023-01-05T10:40:37;101253.50;;;-7.00;69.95
75855;BME280;64502;59.976;30.316;2023-01-05T10:45:44;101251.06;;;-6.94;69.01
75855;BME280;64502;59.976;30.316;2023-01-05T10:48:13;101247.63;;;-6.94;68.80
75855;BME280;64502;59.976;30.316;2023-01-05T10:50:41;101254.47;;;-6.95;69.18
75855;BME280;64502;59.976;30.316;2023-01-05T10:53:14;101247.69;;;-6.91;70.20
75855;BME280;64502;59.976;30.316;2023-01-05T10:56:05;101247.00;;;-6.84;69.63
75855;BME280;64502;59.976;30.316;2023-01-05T11:01:12;101251.63;;;-6.67;70.46
75855;BME280;64502;59.976;30.316;2023-01-05T11:03:41;101253.66;;;-6.51;69.90
75855;BME280;64502;59.976;30.316;2023-01-05T11:06:27;101254.84;;;-6.34;70.16
75855;BME280;64502;59.976;30.316;2023-01-05T11:08:54;101258.59;;;-6.18;69.91
75855;BME280;64502;59.976;30.316;2023-01-05T11:11:29;101258.88;;;-6.03;69.07
75855;BME280;64502;59.976;30.316;2023-01-05T11:13:56;101262.44;;;-5.94;68.40
75855;BME280;64502;59.976;30.316;2023-01-05T11:16:25;101262.63;;;-5.84;69.02
75855;BME280;64502;59.976;30.316;2023-01-05T11:21:24;101262.03;;;-5.67;68.14
75855;BME280;64502;59.976;30.316;2023-01-05T11:23:57;101259.59;;;-5.58;67.99
75855;BME280;64502;59.976;30.316;2023-01-05T11:26:32;101258.88;;;-5.51;68.47
75855;BME280;64502;59.976;30.316;2023-01-05T11:33:59;101252.16;;;-5.43;69.28
75855;BME280;64502;59.976;30.316;2023-01-05T11:36:26;101257.31;;;-5.41;68.32
75855;BME280;64502;59.976;30.316;2023-01-05T11:38:53;101254.75;;;-5.40;67.34
75855;BME280;64502;59.976;30.316;2023-01-05T11:41:21;101256.41;;;-5.43;67.74
75855;BME280;64502;59.976;30.316;2023-01-05T11:43:48;101252.06;;;-5.46;67.36
75855;BME280;64502;59.976;30.316;2023-01-05T11:46:14;101253.75;;;-5.51;66.44
75855;BME280;64502;59.976;30.316;2023-01-05T11:48:54;101264.78;;;-5.55;67.11
75855;BME280;64502;59.976;30.316;2023-01-05T11:51:38;101274.91;;;-5.66;66.76
75855;BME280;64502;59.976;30.316;2023-01-05T11:54:51;101271.38;;;-5.72;67.05
75855;BME280;64502;59.976;30.316;2023-01-05T11:57:15;101270.41;;;-5.77;66.84
75855;BME280;64502;59.976;30.316;2023-01-05T11:59:42;101274.59;;;-5.83;67.93
75855;BME280;64502;59.976;30.316;2023-01-05T12:07:47;101278.44;;;-6.09;67.26
75855;BME280;64502;59.976;30.316;2023-01-05T12:21:24;101292.63;;;-6.71;68.66
75855;BME280;64502;59.976;30.316;2023-01-05T12:26:26;101301.78;;;-6.82;68.81
75855;BME280;64502;59.976;30.316;2023-01-05T12:32:16;101309.19;;;-6.96;68.79
75855;BME280;64502;59.976;30.316;2023-01-05T12:40:51;101317.97;;;-7.21;69.24
75855;BME280;64502;59.976;30.316;2023-01-05T12:44:25;101313.69;;;-7.22;69.86
75855;BME280;64502;59.976;30.316;2023-01-05T12:46:48;101320.41;;;-7.27;69.39
75855;BME280;64502;59.976;30.316;2023-01-05T12:49:26;101325.25;;;-7.38;70.11
75855;BME280;64502;59.976;30.316;2023-01-05T12:51:56;101330.38;;;-7.39;70.62
75855;BME280;64502;59.976;30.316;2023-01-05T12:55:09;101330.38;;;-7.39;71.26
75855;BME280;64502;59.976;30.316;2023-01-05T12:57:45;101338.84;;;-7.42;70.97
75855;BME280;64502;59.976;30.316;2023-01-05T13:00:17;101349.09;;;-7.42;71.28
75855;BME280;64502;59.976;30.316;2023-01-05T13:02:48;101341.50;;;-7.37;71.24
75855;BME280;64502;59.976;30.316;2023-01-05T13:05:33;101344.06;;;-7.37;71.52
75855;BME280;64502;59.976;30.316;2023-01-05T13:08:14;101346.59;;;-7.39;72.02
75855;BME280;64502;59.976;30.316;2023-01-05T13:10:48;101344.03;;;-7.39;71.81
75855;BME280;64502;59.976;30.316;2023-01-05T13:13:20;101353.59;;;-7.33;71.99
75855;BME280;64502;59.976;30.316;2023-01-05T13:16:04;101361.28;;;-7.31;72.01
75855;BME280;64502;59.976;30.316;2023-01-05T13:18:41;101358.84;;;-7.28;71.67
75855;BME280;64502;59.976;30.316;2023-01-05T13:21:10;101355.34;;;-7.30;71.63
75855;BME280;64502;59.976;30.316;2023-01-05T13:23:41;101351.88;;;-7.32;71.89
75855;BME280;64502;59.976;30.316;2023-01-05T13:26:16;101356.16;;;-7.33;71.36
75855;BME280;64502;59.976;30.316;2023-01-05T13:28:45;101357.88;;;-7.32;72.09
75855;BME280;64502;59.976;30.316;2023-01-05T13:31:28;101351.88;;;-7.32;72.14
75855;BME280;64502;59.976;30.316;2023-01-05T13:36:58;101345.31;;;-7.21;73.17
75855;BME280;64502;59.976;30.316;2023-01-05T13:47:22;101355.72;;;-7.15;72.23
75855;BME280;64502;59.976;30.316;2023-01-05T13:54:57;101370.34;;;-7.11;72.82
75855;BME280;64502;59.976;30.316;2023-01-05T13:57:37;101373.13;;;-7.03;72.77
75855;BME280;64502;59.976;30.316;2023-01-05T14:00:38;101382.72;;;-6.95;72.58
75855;BME280;64502;59.976;30.316;2023-01-05T14:03:05;101372.59;;;-6.90;72.32
75855;BME280;64502;59.976;30.316;2023-01-05T14:05:33;101388.09;;;-6.84;72.39
75855;BME280;64502;59.976;30.316;2023-01-05T14:08:03;101384.75;;;-6.81;72.21
75855;BME280;64502;59.976;30.316;2023-01-05T14:10:32;101394.97;;;-6.83;71.96
75855;BME280;64502;59.976;30.316;2023-01-05T14:12:58;101388.91;;;-6.86;71.85
75855;BME280;64502;59.976;30.316;2023-01-05T14:15:42;101387.19;;;-6.86;71.52
75855;BME280;64502;59.976;30.316;2023-01-05T14:18:12;101387.19;;;-6.87;72.83
75855;BME280;64502;59.976;30.316;2023-01-05T14:20:54;101401.69;;;-6.88;72.00
75855;BME280;64502;59.976;30.316;2023-01-05T14:26:09;101407.38;;;-7.00;71.93
75855;BME280;64502;59.976;30.316;2023-01-05T14:41:43;101411.38;;;-6.76;71.98
75855;BME280;64502;59.976;30.316;2023-01-05T14:44:18;101411.44;;;-6.73;71.62
75855;BME280;64502;59.976;30.316;2023-01-05T14:46:51;101415.78;;;-6.71;72.13